createdAt,value
2022-10-05T00:01:57.702Z,77.73
2022-10-05T00:04:11.227Z,77.46
2022-10-05T00:06:14.023Z,77.49
2022-10-05T00:08:22.329Z,77.84
2022-10-05T00:10:25.878Z,77.91
2022-10-05T00:12:29.759Z,77.85
2022-10-05T00:14:36.029Z,77.84
2022-10-05T00:16:38.833Z,77.61
2022-10-05T00:18:41.882Z,77.83
2022-10-05T00:20:45.950Z,77.77
2022-10-05T00:22:49.003Z,77.54
2022-10-05T00:25:01.036Z,77.69
2022-10-05T00:27:15.605Z,77.31
2022-10-05T00:29:22.615Z,77.50
2022-10-05T00:31:27.329Z,77.81
2022-10-05T00:33:30.151Z,77.51
2022-10-05T00:35:36.314Z,77.80
2022-10-05T00:37:39.515Z,77.69
2022-10-05T00:39:43.910Z,77.67
2022-10-05T00:42:04.730Z,77.34
2022-10-05T00:44:25.193Z,77.45
2022-10-05T00:46:36.852Z,77.62
2022-10-05T00:48:47.024Z,77.30
2022-10-05T00:51:18.227Z,77.52
2022-10-05T00:53:34.022Z,77.17
2022-10-05T00:55:47.969Z,77.04
2022-10-05T00:58:07.263Z,77.12
2022-10-05T01:00:13.486Z,77.35
2022-10-05T01:02:22.520Z,77.23
2022-10-05T01:04:29.974Z,77.01
2022-10-05T01:06:40.996Z,77.16
2022-10-05T01:08:55.608Z,77.29
2022-10-05T01:11:06.879Z,77.59
2022-10-05T01:13:19.667Z,77.34
2022-10-05T01:15:32.405Z,77.53
2022-10-05T01:17:41.993Z,77.71
2022-10-05T01:20:07.617Z,78.34
2022-10-05T01:22:25.483Z,78.01
2022-10-05T01:24:45.032Z,78.63
2022-10-05T01:27:08.389Z,78.41
2022-10-05T01:29:19.585Z,78.53
2022-10-05T01:31:27.181Z,78.86
2022-10-05T01:33:36.166Z,78.60
2022-10-05T01:35:47.604Z,78.34
2022-10-05T01:38:05.087Z,78.16
2022-10-05T01:40:13.539Z,78.60
2022-10-05T01:42:24.465Z,78.31
2022-10-05T01:44:33.568Z,78.21
2022-10-05T01:46:43.017Z,78.85
2022-10-05T01:48:56.823Z,78.06
2022-10-05T01:51:11.685Z,78.55
2022-10-05T01:53:25.764Z,77.88
2022-10-05T01:55:35.908Z,78.70
2022-10-05T01:57:51.418Z,78.59
2022-10-05T02:00:05.476Z,78.42
2022-10-05T02:02:20.597Z,78.38
2022-10-05T02:05:00.308Z,78.09
2022-10-05T02:06:54.887Z,78.35
2022-10-05T02:09:05.484Z,78.69
2022-10-05T02:11:10.440Z,78.99
2022-10-05T02:13:18.183Z,78.58
2022-10-05T02:15:26.750Z,78.62
2022-10-05T02:17:36.294Z,78.98
2022-10-05T02:19:42.480Z,78.55
2022-10-05T02:21:49.358Z,79.27
2022-10-05T02:23:56.758Z,79.31
2022-10-05T02:26:01.912Z,78.55
2022-10-05T02:28:11.782Z,78.79
2022-10-05T02:30:18.372Z,78.95
2022-10-05T02:32:30.614Z,79.14
2022-10-05T02:34:38.472Z,78.72
2022-10-05T02:36:54.474Z,78.83
2022-10-05T02:39:06.222Z,78.63
2022-10-05T02:41:19.432Z,78.48
2022-10-05T02:43:31.909Z,78.09
2022-10-05T02:45:44.164Z,78.49
2022-10-05T02:47:56.171Z,78.46
2022-10-05T02:50:04.141Z,78.47
2022-10-05T02:52:13.575Z,78.88
2022-10-05T02:54:28.329Z,78.58
2022-10-05T02:56:41.936Z,78.44
2022-10-05T02:58:51.800Z,78.99
2022-10-05T03:01:01.082Z,78.78
2022-10-05T03:03:11.332Z,78.46
2022-10-05T03:05:22.142Z,79.00
2022-10-05T03:07:31.289Z,78.49
2022-10-05T03:09:42.245Z,78.56
2022-10-05T03:11:51.276Z,78.52
2022-10-05T03:14:02.766Z,78.74
2022-10-05T03:16:21.713Z,78.50
2022-10-05T03:18:39.527Z,78.61
2022-10-05T03:20:49.796Z,78.43
2022-10-05T03:22:58.151Z,78.48
2022-10-05T03:25:32.143Z,78.82
2022-10-05T03:27:44.391Z,79.21
2022-10-05T03:29:53.484Z,78.74
2022-10-05T03:32:06.863Z,79.10
2022-10-05T03:34:18.071Z,78.79
2022-10-05T03:36:27.485Z,78.84
2022-10-05T03:38:38.861Z,78.60
2022-10-05T03:40:47.841Z,79.37
2022-10-05T03:43:06.730Z,79.41
2022-10-05T03:45:19.109Z,79.12
2022-10-05T03:47:29.834Z,80.04
2022-10-05T03:49:48.936Z,79.69
2022-10-05T03:51:56.693Z,79.72
2022-10-05T03:54:06.734Z,79.20
2022-10-05T03:56:16.297Z,79.28
2022-10-05T03:58:25.281Z,79.97
2022-10-05T04:00:29.399Z,80.03
2022-10-05T04:02:43.089Z,79.33
2022-10-05T04:04:53.771Z,79.67
2022-10-05T04:06:58.796Z,79.11
2022-10-05T04:09:06.652Z,79.48
2022-10-05T04:11:15.434Z,79.52
2022-10-05T04:13:24.608Z,79.02
2022-10-05T04:15:34.663Z,79.49
2022-10-05T04:17:43.256Z,79.66
2022-10-05T04:19:57.722Z,79.11
2022-10-05T04:22:09.021Z,79.23
2022-10-05T04:24:18.462Z,79.55
2022-10-05T04:26:35.053Z,79.49
2022-10-05T04:28:46.783Z,79.64
2022-10-05T04:30:54.056Z,79.42
2022-10-05T04:33:00.127Z,79.51
2022-10-05T04:35:34.500Z,79.44
2022-10-05T04:37:48.130Z,79.46
2022-10-05T04:40:05.153Z,80.32
2022-10-05T04:42:16.820Z,80.46
2022-10-05T04:44:37.905Z,80.39
2022-10-05T04:46:58.321Z,80.63
2022-10-05T04:49:26.225Z,79.98
2022-10-05T04:51:38.925Z,79.53
2022-10-05T04:53:50.585Z,79.80
2022-10-05T04:55:59.507Z,80.07
2022-10-05T04:58:10.624Z,79.49
2022-10-05T05:00:23.381Z,79.92
2022-10-05T05:02:39.736Z,80.42
2022-10-05T05:05:15.367Z,79.70
2022-10-05T05:07:37.312Z,79.29
2022-10-05T05:10:02.417Z,79.34
2022-10-05T05:12:19.194Z,79.24
2022-10-05T05:14:42.244Z,79.03
2022-10-05T05:16:50.526Z,79.37
2022-10-05T05:19:18.923Z,79.15
2022-10-05T05:21:34.107Z,79.40
2022-10-05T05:23:45.325Z,79.77
2022-10-05T05:25:58.356Z,79.55
2022-10-05T05:28:16.705Z,79.50
2022-10-05T05:30:23.030Z,79.67
2022-10-05T05:32:39.959Z,79.26
2022-10-05T05:34:57.469Z,79.43
2022-10-05T05:37:05.545Z,80.01
2022-10-05T05:39:25.388Z,79.64
2022-10-05T05:41:37.010Z,80.26
2022-10-05T05:44:00.397Z,79.82
2022-10-05T05:46:11.918Z,79.70
2022-10-05T05:48:20.973Z,79.86
2022-10-05T05:50:42.857Z,79.94
2022-10-05T05:52:51.044Z,80.56
2022-10-05T05:54:59.214Z,81.08
2022-10-05T05:57:11.733Z,80.33
2022-10-05T05:59:23.197Z,80.65
2022-10-05T06:01:33.589Z,81.36
2022-10-05T06:03:47.776Z,81.26
2022-10-05T06:05:54.914Z,81.47
2022-10-05T06:08:02.217Z,81.22
2022-10-05T06:10:30.392Z,81.15
2022-10-05T06:12:46.913Z,81.90
2022-10-05T06:14:54.321Z,81.63
2022-10-05T06:17:04.221Z,81.94
2022-10-05T06:19:13.197Z,81.86
2022-10-05T06:21:23.709Z,81.47
2022-10-05T06:23:34.276Z,82.07
2022-10-05T06:25:52.156Z,81.79
2022-10-05T06:28:03.565Z,81.87
2022-10-05T06:30:13.023Z,81.89
2022-10-05T06:32:28.057Z,80.94
2022-10-05T06:34:54.636Z,81.36
2022-10-05T06:37:01.289Z,81.29
2022-10-05T06:39:32.796Z,81.25
2022-10-05T06:41:50.373Z,81.46
2022-10-05T06:43:59.633Z,81.40
2022-10-05T06:46:30.982Z,80.93
2022-10-05T06:49:13.797Z,80.98
2022-10-05T06:51:51.978Z,80.85
2022-10-05T06:54:15.004Z,80.63
2022-10-05T06:56:26.645Z,81.43
2022-10-05T06:58:45.957Z,80.21
2022-10-05T07:00:54.072Z,81.00
2022-10-05T07:03:04.670Z,80.78
2022-10-05T07:05:38.919Z,80.42
2022-10-05T07:07:52.350Z,79.75
2022-10-05T07:10:09.709Z,81.06
2022-10-05T07:12:45.068Z,81.53
2022-10-05T07:15:02.247Z,80.98
2022-10-05T07:17:21.045Z,80.86
2022-10-05T07:19:35.428Z,81.64
2022-10-05T07:21:45.908Z,81.66
2022-10-05T07:23:57.961Z,81.26
2022-10-05T07:26:07.106Z,82.19
2022-10-05T07:28:18.794Z,82.40
2022-10-05T07:30:23.824Z,82.79
2022-10-05T07:32:34.649Z,82.23
2022-10-05T07:34:48.916Z,82.24
2022-10-05T07:37:13.982Z,82.87
2022-10-05T07:39:36.748Z,82.06
2022-10-05T07:41:54.587Z,81.76
2022-10-05T07:44:08.885Z,82.11
2022-10-05T07:46:22.189Z,81.42
2022-10-05T07:48:33.177Z,81.18
2022-10-05T07:50:45.129Z,81.60
2022-10-05T07:52:54.984Z,81.76
2022-10-05T07:55:06.356Z,81.56
2022-10-05T07:57:21.992Z,82.30
2022-10-05T07:59:35.571Z,81.99
2022-10-05T08:01:44.989Z,82.58
2022-10-05T08:03:54.062Z,82.49
2022-10-05T08:06:05.196Z,83.07
2022-10-05T08:08:19.636Z,83.13
2022-10-05T08:10:27.785Z,82.89
2022-10-05T08:12:35.654Z,82.83
2022-10-05T08:14:45.830Z,82.51
2022-10-05T08:16:53.323Z,81.92
2022-10-05T08:19:00.671Z,81.79
2022-10-05T08:21:11.735Z,81.68
2022-10-05T08:23:22.411Z,81.53
2022-10-05T08:25:27.986Z,81.29
2022-10-05T08:27:39.988Z,81.69
2022-10-05T08:29:51.341Z,81.46
2022-10-05T08:32:01.505Z,81.14
2022-10-05T08:34:20.120Z,81.15
2022-10-05T08:36:28.209Z,80.24
2022-10-05T08:38:33.767Z,80.13
2022-10-05T08:41:09.398Z,80.07
2022-10-05T08:43:30.654Z,79.82
2022-10-05T08:46:11.594Z,79.87
2022-10-05T08:48:43.600Z,80.17
2022-10-05T08:51:10.374Z,80.06
2022-10-05T08:53:25.030Z,80.12
2022-10-05T08:55:38.824Z,79.79
2022-10-05T08:58:14.170Z,79.48
2022-10-05T09:00:20.317Z,79.60
2022-10-05T09:02:33.243Z,78.12
2022-10-05T09:04:53.468Z,78.32
2022-10-05T09:07:10.786Z,78.27
2022-10-05T09:09:42.117Z,77.35
2022-10-05T09:11:55.033Z,77.00
2022-10-05T09:14:15.368Z,77.48
2022-10-05T09:16:39.690Z,77.07
2022-10-05T09:19:17.571Z,77.44
2022-10-05T09:21:35.208Z,77.48
2022-10-05T09:23:40.616Z,76.82
2022-10-05T09:25:58.703Z,76.87
2022-10-05T09:28:18.877Z,76.59
2022-10-05T09:30:27.901Z,75.87
2022-10-05T09:33:04.709Z,75.52
2022-10-05T09:35:22.516Z,75.51
2022-10-05T09:37:57.711Z,75.06
2022-10-05T09:40:41.494Z,74.93
2022-10-05T09:43:15.893Z,74.33
2022-10-05T09:45:43.585Z,74.43
2022-10-05T09:48:13.774Z,73.69
2022-10-05T09:50:48.625Z,73.94
2022-10-05T09:53:14.594Z,73.56
2022-10-05T09:55:52.196Z,72.85
2022-10-05T09:58:31.262Z,72.78
2022-10-05T10:00:55.668Z,72.32
2022-10-05T10:03:42.944Z,72.44
2022-10-05T10:06:28.709Z,71.68
2022-10-05T10:08:44.342Z,72.12
2022-10-05T10:11:01.281Z,71.28
2022-10-05T10:13:25.351Z,70.94
2022-10-05T10:16:04.629Z,71.34
2022-10-05T10:18:52.221Z,71.23
2022-10-05T10:21:21.646Z,71.69
2022-10-05T10:23:54.755Z,70.65
2022-10-05T10:26:16.226Z,71.06
2022-10-05T10:28:50.583Z,70.23
2022-10-05T10:31:06.938Z,69.52
2022-10-05T10:33:43.611Z,68.86
2022-10-05T10:35:55.541Z,67.31
2022-10-05T10:38:17.635Z,67.90
2022-10-05T10:40:30.318Z,68.37
2022-10-05T10:42:42.815Z,67.91
2022-10-05T10:45:01.965Z,67.95
2022-10-05T10:47:39.848Z,68.39
2022-10-05T10:50:08.804Z,68.52
2022-10-05T10:52:28.295Z,68.45
2022-10-05T10:54:53.814Z,68.02
2022-10-05T10:57:06.218Z,67.85
2022-10-05T10:59:32.847Z,68.15
2022-10-05T11:01:39.668Z,68.22
2022-10-05T11:04:20.077Z,66.80
2022-10-05T11:06:34.374Z,66.96
2022-10-05T11:09:04.173Z,67.26
2022-10-05T11:11:23.262Z,67.62
2022-10-05T11:13:45.666Z,67.84
2022-10-05T11:16:31.825Z,67.43
2022-10-05T11:18:52.619Z,67.25
2022-10-05T11:21:18.288Z,66.54
2022-10-05T11:23:39.021Z,66.23
2022-10-05T11:26:10.434Z,66.36
2022-10-05T11:28:46.432Z,65.14
2022-10-05T11:31:10.094Z,64.66
2022-10-05T11:33:49.250Z,65.03
2022-10-05T11:36:18.278Z,64.82
2022-10-05T11:38:50.182Z,64.87
2022-10-05T11:41:25.082Z,65.42
2022-10-05T11:44:12.735Z,64.15
2022-10-05T11:46:20.741Z,64.70
2022-10-05T11:48:35.005Z,64.48
2022-10-05T11:50:45.422Z,64.20
2022-10-05T11:52:52.682Z,64.46
2022-10-05T11:55:14.700Z,64.55
2022-10-05T11:57:21.410Z,63.82
2022-10-05T11:59:35.432Z,64.23
2022-10-05T12:01:45.739Z,64.34
2022-10-05T12:04:00.620Z,63.46
2022-10-05T12:06:21.850Z,64.44
2022-10-05T12:08:35.649Z,63.68
2022-10-05T12:10:46.565Z,63.33
2022-10-05T12:13:11.847Z,63.07
2022-10-05T12:15:23.395Z,62.60
2022-10-05T12:17:35.841Z,63.04
2022-10-05T12:19:42.035Z,61.73
2022-10-05T12:21:53.006Z,62.42
2022-10-05T12:24:00.124Z,61.85
2022-10-05T12:26:06.090Z,62.06
2022-10-05T12:28:13.768Z,62.31
2022-10-05T12:30:26.205Z,62.17
2022-10-05T12:32:36.996Z,62.32
2022-10-05T12:34:52.887Z,61.93
2022-10-05T12:37:04.033Z,61.62
2022-10-05T12:39:16.854Z,61.55
2022-10-05T12:41:26.322Z,61.56
2022-10-05T12:43:36.511Z,61.41
2022-10-05T12:45:56.017Z,61.85
2022-10-05T12:48:25.074Z,61.85
2022-10-05T12:50:31.537Z,61.66
2022-10-05T12:52:48.940Z,61.10
2022-10-05T12:55:02.679Z,60.89
2022-10-05T12:57:15.432Z,60.40
2022-10-05T12:59:29.493Z,61.37
2022-10-05T13:01:42.010Z,61.34
2022-10-05T13:03:52.922Z,61.43
2022-10-05T13:06:09.776Z,61.19
2022-10-05T13:08:23.493Z,61.81
2022-10-05T13:10:34.204Z,61.71
2022-10-05T13:12:48.911Z,62.10
2022-10-05T13:15:00.900Z,62.02
2022-10-05T13:17:11.145Z,62.16
2022-10-05T13:19:28.622Z,62.31
2022-10-05T13:21:49.648Z,62.01
2022-10-05T13:23:59.770Z,61.70
2022-10-05T13:26:07.751Z,61.01
2022-10-05T13:28:16.816Z,60.15
2022-10-05T13:30:21.739Z,59.60
2022-10-05T13:32:28.220Z,59.38
2022-10-05T13:34:38.498Z,59.37
2022-10-05T13:36:52.025Z,60.08
2022-10-05T13:39:03.695Z,60.77
2022-10-05T13:41:12.646Z,60.08
2022-10-05T13:43:23.882Z,60.18
2022-10-05T13:45:32.674Z,60.24
2022-10-05T13:47:44.888Z,60.56
2022-10-05T13:49:53.637Z,60.63
2022-10-05T13:52:01.307Z,60.51
2022-10-05T13:54:11.556Z,60.30
2022-10-05T13:56:20.274Z,60.49
2022-10-05T13:58:33.966Z,60.50
2022-10-05T14:00:46.378Z,60.37
2022-10-05T14:02:53.121Z,60.16
2022-10-05T14:05:00.850Z,60.51
2022-10-05T14:07:22.377Z,59.53
2022-10-05T14:09:30.912Z,60.45
2022-10-05T14:11:36.046Z,60.46
2022-10-05T14:13:47.515Z,61.12
2022-10-05T14:16:04.643Z,60.89
2022-10-05T14:18:24.215Z,60.68
2022-10-05T14:20:30.980Z,60.86
2022-10-05T14:22:42.701Z,60.89
2022-10-05T14:24:52.403Z,60.31
2022-10-05T14:26:57.318Z,59.82
2022-10-05T14:29:02.597Z,59.95
2022-10-05T14:31:15.445Z,59.69
2022-10-05T14:33:30.422Z,60.17
2022-10-05T14:35:48.834Z,59.60
2022-10-05T14:37:57.058Z,59.71
2022-10-05T14:40:03.719Z,59.99
2022-10-05T14:42:15.911Z,59.94
2022-10-05T14:44:29.620Z,60.27
2022-10-05T14:46:33.933Z,60.43
2022-10-05T14:48:43.602Z,60.30
2022-10-05T14:50:55.484Z,60.02
2022-10-05T14:53:09.795Z,60.30
2022-10-05T14:55:31.128Z,60.28
2022-10-05T14:57:41.983Z,60.16
2022-10-05T15:00:10.316Z,60.39
2022-10-05T15:02:38.789Z,59.84
2022-10-05T15:04:49.867Z,60.37
2022-10-05T15:07:05.218Z,60.08
2022-10-05T15:09:26.055Z,60.06
2022-10-05T15:11:40.301Z,60.13
2022-10-05T15:13:46.175Z,59.85
2022-10-05T15:15:54.555Z,59.43
2022-10-05T15:18:01.990Z,59.55
2022-10-05T15:20:18.805Z,59.30
2022-10-05T15:22:31.641Z,60.17
2022-10-05T15:24:43.699Z,60.10
2022-10-05T15:26:51.485Z,60.22
2022-10-05T15:29:01.081Z,60.39
2022-10-05T15:31:06.610Z,59.48
2022-10-05T15:33:16.797Z,59.81
2022-10-05T15:35:36.905Z,59.95
2022-10-05T15:37:44.590Z,60.13
2022-10-05T15:39:53.455Z,59.63
2022-10-05T15:42:00.736Z,60.60
2022-10-05T15:44:09.957Z,60.84
2022-10-05T15:46:16.421Z,60.86
2022-10-05T15:48:22.873Z,60.90
2022-10-05T15:50:32.217Z,61.06
2022-10-05T15:52:41.662Z,60.67
2022-10-05T15:55:19.393Z,61.22
2022-10-05T15:57:26.537Z,61.40
2022-10-05T15:59:37.430Z,61.22
2022-10-05T16:01:48.126Z,61.01
2022-10-05T16:03:55.325Z,61.28
2022-10-05T16:06:24.656Z,62.04
2022-10-05T16:08:58.540Z,61.71
2022-10-05T16:11:03.646Z,62.06
2022-10-05T16:13:20.035Z,62.23
2022-10-05T16:15:29.157Z,62.58
2022-10-05T16:17:47.941Z,62.67
2022-10-05T16:20:04.073Z,62.42
2022-10-05T16:22:21.619Z,62.62
2022-10-05T16:24:49.226Z,63.01
2022-10-05T16:26:59.073Z,63.55
2022-10-05T16:29:09.584Z,63.36
2022-10-05T16:31:18.696Z,63.55
2022-10-05T16:33:29.136Z,63.89
2022-10-05T16:35:44.442Z,63.83
2022-10-05T16:37:58.392Z,64.30
2022-10-05T16:40:04.215Z,64.29
2022-10-05T16:42:17.285Z,64.08
2022-10-05T16:44:33.533Z,64.25
2022-10-05T16:46:45.177Z,64.60
2022-10-05T16:48:56.271Z,64.66
2022-10-05T16:51:24.008Z,64.45
2022-10-05T16:53:31.815Z,64.91
2022-10-05T16:55:38.572Z,65.07
2022-10-05T16:57:45.093Z,65.60
2022-10-05T17:00:03.794Z,65.71
2022-10-05T17:02:15.122Z,65.82
2022-10-05T17:04:31.751Z,66.20
2022-10-05T17:06:54.915Z,66.74
2022-10-05T17:09:16.984Z,67.29
2022-10-05T17:11:34.631Z,67.50
2022-10-05T17:13:55.055Z,67.69
2022-10-05T17:16:11.000Z,68.24
2022-10-05T17:18:29.255Z,68.47
2022-10-05T17:20:44.600Z,68.67
2022-10-05T17:22:52.778Z,68.98
2022-10-05T17:25:04.580Z,69.04
2022-10-05T17:27:19.934Z,69.10
2022-10-05T17:29:47.554Z,69.16
2022-10-05T17:32:10.655Z,69.55
2022-10-05T17:34:29.134Z,70.13
2022-10-05T17:36:43.731Z,69.47
2022-10-05T17:38:49.688Z,69.56
2022-10-05T17:41:19.735Z,69.85
2022-10-05T17:43:25.496Z,69.65
2022-10-05T17:45:58.296Z,68.77
2022-10-05T17:48:04.091Z,68.92
2022-10-05T17:50:42.048Z,67.70
2022-10-05T17:53:03.958Z,67.20
2022-10-05T17:55:39.291Z,65.18
2022-10-05T17:57:43.456Z,65.13
2022-10-05T17:59:49.359Z,63.87
2022-10-05T18:02:16.749Z,62.23
2022-10-05T18:04:42.211Z,61.60
2022-10-05T18:06:47.973Z,61.05
2022-10-05T18:08:51.272Z,61.03
2022-10-05T18:11:17.131Z,60.25
2022-10-05T18:13:35.870Z,59.86
2022-10-05T18:15:45.697Z,58.63
2022-10-05T18:17:51.370Z,58.41
2022-10-05T18:20:13.223Z,58.19
2022-10-05T18:22:30.278Z,58.16
2022-10-05T18:25:03.432Z,57.83
2022-10-05T18:27:28.635Z,57.68
2022-10-05T18:30:05.357Z,57.41
2022-10-05T18:32:20.206Z,57.44
2022-10-05T18:34:32.203Z,57.09
2022-10-05T18:36:51.184Z,56.50
2022-10-05T18:39:03.977Z,56.78
2022-10-05T18:41:14.365Z,56.32
2022-10-05T18:43:30.035Z,57.01
2022-10-05T18:45:48.022Z,56.42
2022-10-05T18:48:01.544Z,56.43
2022-10-05T18:50:16.623Z,56.40
2022-10-05T18:52:28.254Z,56.25
2022-10-05T18:54:54.691Z,55.96
2022-10-05T18:56:57.470Z,56.28
2022-10-05T18:59:15.023Z,56.45
2022-10-05T19:01:34.999Z,56.55
2022-10-05T19:03:51.109Z,56.13
2022-10-05T19:06:06.586Z,56.25
2022-10-05T19:08:21.670Z,56.41
2022-10-05T19:10:32.512Z,56.28
2022-10-05T19:12:46.279Z,55.80
2022-10-05T19:14:59.332Z,56.10
2022-10-05T19:17:25.063Z,56.27
2022-10-05T19:19:49.238Z,56.08
2022-10-05T19:22:00.058Z,56.04
2022-10-05T19:24:19.779Z,56.20
2022-10-05T19:26:39.193Z,55.68
2022-10-05T19:28:50.871Z,56.11
2022-10-05T19:31:07.958Z,56.83
2022-10-05T19:33:29.300Z,56.34
2022-10-05T19:35:39.306Z,56.51
2022-10-05T19:37:57.699Z,56.04
2022-10-05T19:40:09.738Z,56.05
2022-10-05T19:42:31.015Z,56.00
2022-10-05T19:44:52.275Z,56.19
2022-10-05T19:47:01.021Z,55.95
2022-10-05T19:49:09.563Z,55.97
2022-10-05T19:51:15.863Z,55.75
2022-10-05T19:53:25.959Z,55.73
2022-10-05T19:55:35.361Z,55.79
2022-10-05T19:57:47.434Z,55.57
2022-10-05T19:59:50.360Z,56.32
2022-10-05T20:01:55.555Z,55.82
2022-10-05T20:03:59.054Z,55.90
2022-10-05T20:06:05.150Z,55.98
2022-10-05T20:08:12.401Z,56.42
2022-10-05T20:10:28.924Z,56.21
2022-10-05T20:12:51.472Z,56.26
2022-10-05T20:15:26.118Z,56.29
2022-10-05T20:17:47.388Z,56.53
2022-10-05T20:20:12.896Z,56.40
2022-10-05T20:22:30.607Z,56.99
2022-10-05T20:24:50.789Z,56.90
2022-10-05T20:27:16.183Z,56.70
2022-10-05T20:29:19.105Z,56.94
2022-10-05T20:31:22.410Z,56.67
2022-10-05T20:33:26.480Z,56.98
2022-10-05T20:35:30.621Z,56.88
2022-10-05T20:37:36.653Z,57.42
2022-10-05T20:39:40.205Z,57.30
2022-10-05T20:41:43.288Z,57.60
2022-10-05T20:43:46.129Z,57.37
2022-10-05T20:45:48.889Z,57.99
2022-10-05T20:47:51.713Z,57.97
2022-10-05T20:49:55.271Z,58.31
2022-10-05T20:51:58.980Z,58.37
2022-10-05T20:54:03.037Z,58.64
2022-10-05T20:56:06.271Z,58.77
2022-10-05T20:58:11.023Z,58.94
2022-10-05T21:00:14.786Z,58.57
2022-10-05T21:02:18.816Z,59.05
2022-10-05T21:04:23.169Z,58.62
2022-10-05T21:06:27.995Z,59.36
2022-10-05T21:08:31.141Z,59.70
2022-10-05T21:10:36.835Z,59.66
2022-10-05T21:12:39.565Z,60.02
2022-10-05T21:14:42.391Z,59.62
2022-10-05T21:16:45.885Z,59.81
2022-10-05T21:18:50.077Z,60.05
2022-10-05T21:20:53.056Z,59.98
2022-10-05T21:22:55.782Z,60.63
2022-10-05T21:24:58.521Z,60.27
2022-10-05T21:27:02.881Z,60.50
2022-10-05T21:29:11.516Z,60.94
2022-10-05T21:31:15.258Z,60.95
2022-10-05T21:33:18.023Z,61.30
2022-10-05T21:35:20.838Z,61.13
2022-10-05T21:37:23.701Z,60.94
2022-10-05T21:39:26.889Z,60.96
2022-10-05T21:41:29.597Z,61.13
2022-10-05T21:43:33.691Z,60.74
2022-10-05T21:45:36.533Z,61.09
2022-10-05T21:47:39.374Z,61.40
2022-10-05T21:49:42.573Z,61.15
2022-10-05T21:51:46.083Z,61.41
2022-10-05T21:53:52.814Z,61.17
2022-10-05T21:55:57.709Z,61.16
2022-10-05T21:58:04.158Z,61.54
2022-10-05T22:00:10.862Z,61.57
2022-10-05T22:02:13.593Z,61.81
2022-10-05T22:04:16.566Z,62.06
2022-10-05T22:06:19.301Z,61.79
2022-10-05T22:08:24.990Z,61.58
2022-10-05T22:10:28.909Z,62.31
2022-10-05T22:12:32.081Z,62.10
2022-10-05T22:14:34.836Z,62.08
2022-10-05T22:16:40.374Z,62.10
2022-10-05T22:18:43.682Z,62.59
2022-10-05T22:20:47.107Z,61.99
2022-10-05T22:22:50.176Z,62.04
2022-10-05T22:24:53.656Z,62.58
2022-10-05T22:26:56.410Z,62.44
2022-10-05T22:28:59.153Z,62.79
2022-10-05T22:31:05.136Z,62.83
2022-10-05T22:33:09.716Z,62.76
2022-10-05T22:35:12.295Z,63.37
2022-10-05T22:37:15.532Z,63.34
2022-10-05T22:39:18.719Z,63.38
2022-10-05T22:41:21.590Z,63.41
2022-10-05T22:43:26.892Z,63.75
2022-10-05T22:45:32.572Z,63.88
2022-10-05T22:47:35.959Z,64.05
2022-10-05T22:49:40.109Z,63.79
2022-10-05T22:51:42.985Z,64.41
2022-10-05T22:53:45.735Z,63.99
2022-10-05T22:55:48.494Z,64.52
2022-10-05T22:57:51.417Z,64.37
2022-10-05T22:59:54.150Z,64.54
2022-10-05T23:01:56.971Z,65.22
2022-10-05T23:03:59.813Z,65.15
2022-10-05T23:06:08.166Z,65.03
2022-10-05T23:08:10.924Z,65.28
2022-10-05T23:10:16.307Z,64.78
2022-10-05T23:12:19.041Z,65.48
2022-10-05T23:14:23.041Z,65.66
2022-10-05T23:16:29.147Z,65.62
2022-10-05T23:18:33.318Z,66.31
2022-10-05T23:20:36.960Z,65.92
2022-10-05T23:22:41.075Z,66.25
2022-10-05T23:24:43.857Z,66.28
2022-10-05T23:26:46.584Z,65.93
2022-10-05T23:28:50.237Z,65.93
2022-10-05T23:30:53.125Z,66.36
2022-10-05T23:32:55.917Z,66.46
2022-10-05T23:34:58.664Z,66.38
2022-10-05T23:37:01.487Z,66.93
2022-10-05T23:39:05.634Z,66.72
2022-10-05T23:41:08.860Z,67.12
2022-10-05T23:43:11.625Z,67.23
2022-10-05T23:45:15.463Z,67.37
2022-10-05T23:47:18.290Z,67.60
2022-10-05T23:49:21.018Z,67.27
2022-10-05T23:51:23.774Z,67.33
2022-10-05T23:53:26.728Z,67.58
2022-10-05T23:55:31.068Z,67.61
2022-10-05T23:57:33.881Z,67.69
2022-10-05T23:59:36.786Z,67.82
